sensor_id;sensor_type;location;lat;lon;timestamp;P1;durP1;ratioP1;P2;durP2;ratioP2
16037;SDS011;8123;50.906;6.172;2023-06-14T00:01:43;12.23;;;8.40;;
16037;SDS011;8123;50.906;6.172;2023-06-14T00:04:11;19.20;;;9.80;;
16037;SDS011;8123;50.906;6.172;2023-06-14T00:06:38;19.10;;;9.83;;
16037;SDS011;8123;50.906;6.172;2023-06-14T00:09:04;16.27;;;9.30;;
16037;SDS011;8123;50.906;6.172;2023-06-14T00:11:30;17.00;;;8.93;;
16037;SDS011;8123;50.906;6.172;2023-06-14T00:13:56;15.83;;;9.33;;
16037;SDS011;8123;50.906;6.172;2023-06-14T00:16:22;20.03;;;10.00;;
16037;SDS011;8123;50.906;6.172;2023-06-14T00:18:48;19.30;;;9.23;;
16037;SDS011;8123;50.906;6.172;2023-06-14T00:21:13;17.50;;;9.80;;
16037;SDS011;8123;50.906;6.172;2023-06-14T00:23:39;17.87;;;11.00;;
16037;SDS011;8123;50.906;6.172;2023-06-14T00:26:05;14.30;;;10.30;;
16037;SDS011;8123;50.906;6.172;2023-06-14T00:28:31;11.30;;;9.27;;
16037;SDS011;8123;50.906;6.172;2023-06-14T00:30:56;10.97;;;9.70;;
16037;SDS011;8123;50.906;6.172;2023-06-14T00:33:22;10.87;;;9.27;;
16037;SDS011;8123;50.906;6.172;2023-06-14T00:35:47;14.00;;;10.43;;
16037;SDS011;8123;50.906;6.172;2023-06-14T00:38:13;14.20;;;10.60;;
16037;SDS011;8123;50.906;6.172;2023-06-14T00:40:39;16.07;;;11.30;;
16037;SDS011;8123;50.906;6.172;2023-06-14T00:43:04;15.90;;;9.20;;
16037;SDS011;8123;50.906;6.172;2023-06-14T00:45:30;11.83;;;10.57;;
16037;SDS011;8123;50.906;6.172;2023-06-14T00:48:00;17.70;;;10.60;;
16037;SDS011;8123;50.906;6.172;2023-06-14T00:50:27;15.10;;;10.20;;
16037;SDS011;8123;50.906;6.172;2023-06-14T00:52:54;19.00;;;11.00;;
16037;SDS011;8123;50.906;6.172;2023-06-14T00:55:21;16.43;;;10.57;;
16037;SDS011;8123;50.906;6.172;2023-06-14T00:57:46;13.03;;;9.53;;
16037;SDS011;8123;50.906;6.172;2023-06-14T01:00:14;18.47;;;10.90;;
16037;SDS011;8123;50.906;6.172;2023-06-14T01:02:40;16.83;;;10.00;;
16037;SDS011;8123;50.906;6.172;2023-06-14T01:05:06;14.50;;;9.80;;
16037;SDS011;8123;50.906;6.172;2023-06-14T01:13:13;17.60;;;10.30;;
16037;SDS011;8123;50.906;6.172;2023-06-14T01:15:45;17.43;;;11.07;;
16037;SDS011;8123;50.906;6.172;2023-06-14T01:18:12;20.23;;;10.87;;
16037;SDS011;8123;50.906;6.172;2023-06-14T01:20:45;17.40;;;11.27;;
16037;SDS011;8123;50.906;6.172;2023-06-14T01:23:16;11.40;;;9.70;;
16037;SDS011;8123;50.906;6.172;2023-06-14T01:25:45;14.07;;;10.73;;
16037;SDS011;8123;50.906;6.172;2023-06-14T01:28:12;14.70;;;10.40;;
16037;SDS011;8123;50.906;6.172;2023-06-14T01:30:40;22.27;;;11.03;;
16037;SDS011;8123;50.906;6.172;2023-06-14T01:33:20;13.90;;;11.50;;
16037;SDS011;8123;50.906;6.172;2023-06-14T01:35:48;14.73;;;10.47;;
16037;SDS011;8123;50.906;6.172;2023-06-14T01:38:17;22.20;;;11.83;;
16037;SDS011;8123;50.906;6.172;2023-06-14T01:40:45;16.37;;;11.17;;
16037;SDS011;8123;50.906;6.172;2023-06-14T01:43:12;13.47;;;10.30;;
16037;SDS011;8123;50.906;6.172;2023-06-14T01:45:40;18.00;;;11.00;;
16037;SDS011;8123;50.906;6.172;2023-06-14T01:48:07;17.83;;;11.57;;
16037;SDS011;8123;50.906;6.172;2023-06-14T01:50:33;15.60;;;10.50;;
16037;SDS011;8123;50.906;6.172;2023-06-14T01:52:59;21.67;;;10.90;;
16037;SDS011;8123;50.906;6.172;2023-06-14T01:55:25;15.30;;;9.80;;
16037;SDS011;8123;50.906;6.172;2023-06-14T01:57:51;19.00;;;11.27;;
16037;SDS011;8123;50.906;6.172;2023-06-14T02:00:17;13.50;;;10.00;;
16037;SDS011;8123;50.906;6.172;2023-06-14T02:02:43;13.20;;;10.43;;
16037;SDS011;8123;50.906;6.172;2023-06-14T02:05:09;10.87;;;9.50;;
16037;SDS011;8123;50.906;6.172;2023-06-14T02:07:35;12.97;;;9.80;;
16037;SDS011;8123;50.906;6.172;2023-06-14T02:10:02;17.03;;;9.20;;
16037;SDS011;8123;50.906;6.172;2023-06-14T02:12:28;21.80;;;10.10;;
16037;SDS011;8123;50.906;6.172;2023-06-14T02:14:54;13.13;;;10.10;;
16037;SDS011;8123;50.906;6.172;2023-06-14T02:17:21;14.13;;;10.37;;
16037;SDS011;8123;50.906;6.172;2023-06-14T02:19:47;18.40;;;11.10;;
16037;SDS011;8123;50.906;6.172;2023-06-14T02:22:13;17.33;;;10.97;;
16037;SDS011;8123;50.906;6.172;2023-06-14T02:24:40;14.60;;;10.50;;
16037;SDS011;8123;50.906;6.172;2023-06-14T02:27:07;14.13;;;9.90;;
16037;SDS011;8123;50.906;6.172;2023-06-14T02:29:35;21.33;;;10.97;;
16037;SDS011;8123;50.906;6.172;2023-06-14T02:32:01;17.57;;;10.83;;
16037;SDS011;8123;50.906;6.172;2023-06-14T02:34:26;19.53;;;10.37;;
16037;SDS011;8123;50.906;6.172;2023-06-14T02:36:52;14.17;;;10.53;;
16037;SDS011;8123;50.906;6.172;2023-06-14T02:39:18;16.03;;;10.60;;
16037;SDS011;8123;50.906;6.172;2023-06-14T02:41:45;28.00;;;10.50;;
16037;SDS011;8123;50.906;6.172;2023-06-14T02:44:13;22.20;;;11.33;;
16037;SDS011;8123;50.906;6.172;2023-06-14T02:46:38;16.97;;;10.63;;
16037;SDS011;8123;50.906;6.172;2023-06-14T02:49:04;14.97;;;10.07;;
16037;SDS011;8123;50.906;6.172;2023-06-14T02:51:30;21.23;;;10.03;;
16037;SDS011;8123;50.906;6.172;2023-06-14T02:53:55;18.33;;;11.00;;
16037;SDS011;8123;50.906;6.172;2023-06-14T02:56:21;13.37;;;10.67;;
16037;SDS011;8123;50.906;6.172;2023-06-14T02:58:47;13.03;;;10.37;;
16037;SDS011;8123;50.906;6.172;2023-06-14T03:01:13;23.20;;;12.37;;
16037;SDS011;8123;50.906;6.172;2023-06-14T03:03:39;20.43;;;11.03;;
16037;SDS011;8123;50.906;6.172;2023-06-14T03:06:05;16.47;;;10.50;;
16037;SDS011;8123;50.906;6.172;2023-06-14T03:08:33;16.10;;;10.07;;
16037;SDS011;8123;50.906;6.172;2023-06-14T03:11:03;12.70;;;10.20;;
16037;SDS011;8123;50.906;6.172;2023-06-14T03:13:34;19.83;;;9.83;;
16037;SDS011;8123;50.906;6.172;2023-06-14T03:16:00;12.90;;;10.57;;
16037;SDS011;8123;50.906;6.172;2023-06-14T03:18:29;20.33;;;10.30;;
16037;SDS011;8123;50.906;6.172;2023-06-14T03:20:56;20.00;;;12.20;;
16037;SDS011;8123;50.906;6.172;2023-06-14T03:23:23;16.00;;;11.00;;
16037;SDS011;8123;50.906;6.172;2023-06-14T03:25:50;17.80;;;10.60;;
16037;SDS011;8123;50.906;6.172;2023-06-14T03:28:16;20.10;;;10.57;;
16037;SDS011;8123;50.906;6.172;2023-06-14T03:30:42;17.63;;;10.90;;
16037;SDS011;8123;50.906;6.172;2023-06-14T03:33:07;19.03;;;11.10;;
16037;SDS011;8123;50.906;6.172;2023-06-14T03:35:33;19.60;;;11.87;;
16037;SDS011;8123;50.906;6.172;2023-06-14T03:37:59;22.23;;;11.40;;
16037;SDS011;8123;50.906;6.172;2023-06-14T03:40:25;17.73;;;11.60;;
16037;SDS011;8123;50.906;6.172;2023-06-14T03:42:52;24.60;;;11.70;;
16037;SDS011;8123;50.906;6.172;2023-06-14T03:45:21;23.20;;;11.60;;
16037;SDS011;8123;50.906;6.172;2023-06-14T03:47:46;21.37;;;11.53;;
16037;SDS011;8123;50.906;6.172;2023-06-14T03:50:12;21.87;;;11.17;;
16037;SDS011;8123;50.906;6.172;2023-06-14T03:52:38;19.00;;;11.00;;
16037;SDS011;8123;50.906;6.172;2023-06-14T03:55:05;19.20;;;11.33;;
16037;SDS011;8123;50.906;6.172;2023-06-14T03:57:31;18.20;;;11.00;;
16037;SDS011;8123;50.906;6.172;2023-06-14T03:59:57;16.80;;;11.50;;
16037;SDS011;8123;50.906;6.172;2023-06-14T04:02:22;16.37;;;11.20;;
16037;SDS011;8123;50.906;6.172;2023-06-14T04:04:48;18.87;;;11.87;;
16037;SDS011;8123;50.906;6.172;2023-06-14T04:07:14;19.30;;;11.43;;
16037;SDS011;8123;50.906;6.172;2023-06-14T04:09:44;20.73;;;11.27;;
16037;SDS011;8123;50.906;6.172;2023-06-14T04:12:10;23.83;;;10.90;;
16037;SDS011;8123;50.906;6.172;2023-06-14T04:14:39;19.50;;;11.03;;
16037;SDS011;8123;50.906;6.172;2023-06-14T04:17:05;26.03;;;11.20;;
16037;SDS011;8123;50.906;6.172;2023-06-14T04:19:31;21.17;;;11.70;;
16037;SDS011;8123;50.906;6.172;2023-06-14T04:21:58;21.03;;;11.83;;
16037;SDS011;8123;50.906;6.172;2023-06-14T04:24:27;14.83;;;10.43;;
16037;SDS011;8123;50.906;6.172;2023-06-14T04:27:00;16.50;;;11.17;;
16037;SDS011;8123;50.906;6.172;2023-06-14T04:29:26;25.53;;;11.70;;
16037;SDS011;8123;50.906;6.172;2023-06-14T04:31:54;28.40;;;11.60;;
16037;SDS011;8123;50.906;6.172;2023-06-14T04:34:24;20.63;;;11.00;;
16037;SDS011;8123;50.906;6.172;2023-06-14T04:36:58;14.30;;;9.80;;
16037;SDS011;8123;50.906;6.172;2023-06-14T04:39:26;14.70;;;10.50;;
16037;SDS011;8123;50.906;6.172;2023-06-14T04:41:52;19.73;;;13.17;;
16037;SDS011;8123;50.906;6.172;2023-06-14T04:44:22;16.90;;;11.00;;
16037;SDS011;8123;50.906;6.172;2023-06-14T04:46:55;20.37;;;10.67;;
16037;SDS011;8123;50.906;6.172;2023-06-14T04:49:24;17.97;;;11.63;;
16037;SDS011;8123;50.906;6.172;2023-06-14T04:51:52;19.27;;;11.10;;
16037;SDS011;8123;50.906;6.172;2023-06-14T04:54:22;18.93;;;11.20;;
16037;SDS011;8123;50.906;6.172;2023-06-14T04:56:49;21.30;;;10.47;;
16037;SDS011;8123;50.906;6.172;2023-06-14T04:59:15;31.40;;;11.43;;
16037;SDS011;8123;50.906;6.172;2023-06-14T05:01:42;17.27;;;9.80;;
16037;SDS011;8123;50.906;6.172;2023-06-14T05:04:12;26.40;;;11.37;;
16037;SDS011;8123;50.906;6.172;2023-06-14T05:06:38;23.20;;;10.50;;
16037;SDS011;8123;50.906;6.172;2023-06-14T05:09:04;16.07;;;9.90;;
16037;SDS011;8123;50.906;6.172;2023-06-14T05:11:30;21.93;;;10.33;;
16037;SDS011;8123;50.906;6.172;2023-06-14T05:13:55;20.63;;;10.90;;
16037;SDS011;8123;50.906;6.172;2023-06-14T05:16:24;14.43;;;9.93;;
16037;SDS011;8123;50.906;6.172;2023-06-14T05:18:50;21.07;;;10.73;;
16037;SDS011;8123;50.906;6.172;2023-06-14T05:21:17;29.40;;;11.20;;
16037;SDS011;8123;50.906;6.172;2023-06-14T05:23:44;26.73;;;12.00;;
16037;SDS011;8123;50.906;6.172;2023-06-14T05:26:10;24.33;;;10.93;;
16037;SDS011;8123;50.906;6.172;2023-06-14T05:28:36;17.17;;;11.20;;
16037;SDS011;8123;50.906;6.172;2023-06-14T05:31:02;27.57;;;11.70;;
16037;SDS011;8123;50.906;6.172;2023-06-14T05:33:27;19.20;;;11.23;;
16037;SDS011;8123;50.906;6.172;2023-06-14T05:35:54;30.60;;;11.70;;
16037;SDS011;8123;50.906;6.172;2023-06-14T05:38:20;27.77;;;10.90;;
16037;SDS011;8123;50.906;6.172;2023-06-14T05:40:46;25.60;;;10.07;;
16037;SDS011;8123;50.906;6.172;2023-06-14T05:43:11;27.47;;;9.87;;
16037;SDS011;8123;50.906;6.172;2023-06-14T05:45:37;26.63;;;10.30;;
16037;SDS011;8123;50.906;6.172;2023-06-14T05:48:04;24.73;;;9.43;;
16037;SDS011;8123;50.906;6.172;2023-06-14T05:50:30;26.97;;;10.30;;
16037;SDS011;8123;50.906;6.172;2023-06-14T05:52:55;20.37;;;10.40;;
16037;SDS011;8123;50.906;6.172;2023-06-14T05:55:21;41.27;;;12.20;;
16037;SDS011;8123;50.906;6.172;2023-06-14T05:57:47;29.67;;;10.23;;
16037;SDS011;8123;50.906;6.172;2023-06-14T06:00:13;38.77;;;10.73;;
16037;SDS011;8123;50.906;6.172;2023-06-14T06:02:44;23.00;;;9.67;;
16037;SDS011;8123;50.906;6.172;2023-06-14T06:05:10;21.63;;;10.43;;
16037;SDS011;8123;50.906;6.172;2023-06-14T06:07:36;20.90;;;10.60;;
16037;SDS011;8123;50.906;6.172;2023-06-14T06:10:03;15.30;;;9.60;;
16037;SDS011;8123;50.906;6.172;2023-06-14T06:12:30;19.80;;;10.00;;
16037;SDS011;8123;50.906;6.172;2023-06-14T06:14:56;15.83;;;10.37;;
16037;SDS011;8123;50.906;6.172;2023-06-14T06:17:21;27.23;;;9.43;;
16037;SDS011;8123;50.906;6.172;2023-06-14T06:19:47;27.67;;;10.50;;
16037;SDS011;8123;50.906;6.172;2023-06-14T06:22:14;29.63;;;10.13;;
16037;SDS011;8123;50.906;6.172;2023-06-14T06:24:39;26.17;;;9.20;;
16037;SDS011;8123;50.906;6.172;2023-06-14T06:27:05;17.00;;;9.90;;
16037;SDS011;8123;50.906;6.172;2023-06-14T06:29:33;14.70;;;10.20;;
16037;SDS011;8123;50.906;6.172;2023-06-14T06:31:59;20.20;;;9.53;;
16037;SDS011;8123;50.906;6.172;2023-06-14T06:34:24;20.90;;;9.17;;
16037;SDS011;8123;50.906;6.172;2023-06-14T06:36:50;23.63;;;9.47;;
16037;SDS011;8123;50.906;6.172;2023-06-14T06:39:16;23.00;;;7.87;;
16037;SDS011;8123;50.906;6.172;2023-06-14T06:41:42;16.63;;;7.50;;
16037;SDS011;8123;50.906;6.172;2023-06-14T06:44:07;27.87;;;8.63;;
16037;SDS011;8123;50.906;6.172;2023-06-14T06:46:44;12.20;;;7.33;;
16037;SDS011;8123;50.906;6.172;2023-06-14T06:49:10;14.23;;;7.93;;
16037;SDS011;8123;50.906;6.172;2023-06-14T06:51:37;15.97;;;7.40;;
16037;SDS011;8123;50.906;6.172;2023-06-14T06:54:10;13.50;;;7.33;;
16037;SDS011;8123;50.906;6.172;2023-06-14T06:56:36;12.13;;;6.93;;
16037;SDS011;8123;50.906;6.172;2023-06-14T06:59:02;13.13;;;7.07;;
16037;SDS011;8123;50.906;6.172;2023-06-14T07:01:28;10.00;;;7.37;;
16037;SDS011;8123;50.906;6.172;2023-06-14T07:03:56;11.57;;;7.23;;
16037;SDS011;8123;50.906;6.172;2023-06-14T07:06:22;9.00;;;6.40;;
16037;SDS011;8123;50.906;6.172;2023-06-14T07:08:52;26.40;;;6.90;;
16037;SDS011;8123;50.906;6.172;2023-06-14T07:11:17;20.20;;;7.50;;
16037;SDS011;8123;50.906;6.172;2023-06-14T07:13:43;17.43;;;7.20;;
16037;SDS011;8123;50.906;6.172;2023-06-14T07:16:10;20.33;;;6.80;;
16037;SDS011;8123;50.906;6.172;2023-06-14T07:18:36;18.73;;;6.40;;
16037;SDS011;8123;50.906;6.172;2023-06-14T07:21:04;22.37;;;6.63;;
16037;SDS011;8123;50.906;6.172;2023-06-14T07:23:30;21.13;;;7.33;;
16037;SDS011;8123;50.906;6.172;2023-06-14T07:25:56;19.13;;;6.53;;
16037;SDS011;8123;50.906;6.172;2023-06-14T07:28:21;12.50;;;6.93;;
16037;SDS011;8123;50.906;6.172;2023-06-14T07:30:47;11.00;;;5.87;;
16037;SDS011;8123;50.906;6.172;2023-06-14T07:33:18;19.80;;;6.60;;
16037;SDS011;8123;50.906;6.172;2023-06-14T07:35:44;8.10;;;6.63;;
16037;SDS011;8123;50.906;6.172;2023-06-14T07:38:10;11.73;;;6.50;;
16037;SDS011;8123;50.906;6.172;2023-06-14T07:40:36;27.93;;;6.90;;
16037;SDS011;8123;50.906;6.172;2023-06-14T07:43:01;15.90;;;6.90;;
16037;SDS011;8123;50.906;6.172;2023-06-14T07:45:27;25.83;;;6.53;;
16037;SDS011;8123;50.906;6.172;2023-06-14T07:47:53;15.33;;;6.37;;
16037;SDS011;8123;50.906;6.172;2023-06-14T07:50:18;12.70;;;6.57;;
16037;SDS011;8123;50.906;6.172;2023-06-14T07:52:44;8.47;;;5.03;;
16037;SDS011;8123;50.906;6.172;2023-06-14T07:55:11;17.60;;;6.57;;
16037;SDS011;8123;50.906;6.172;2023-06-14T07:57:38;12.70;;;6.70;;
16037;SDS011;8123;50.906;6.172;2023-06-14T08:00:03;11.67;;;4.80;;
16037;SDS011;8123;50.906;6.172;2023-06-14T08:02:33;10.50;;;5.43;;
16037;SDS011;8123;50.906;6.172;2023-06-14T08:04:58;11.20;;;4.10;;
16037;SDS011;8123;50.906;6.172;2023-06-14T08:07:24;17.13;;;5.37;;
16037;SDS011;8123;50.906;6.172;2023-06-14T08:09:49;13.23;;;5.80;;
16037;SDS011;8123;50.906;6.172;2023-06-14T08:12:15;10.17;;;5.50;;
16037;SDS011;8123;50.906;6.172;2023-06-14T08:14:41;11.83;;;4.93;;
16037;SDS011;8123;50.906;6.172;2023-06-14T08:17:08;6.33;;;4.77;;
16037;SDS011;8123;50.906;6.172;2023-06-14T08:19:34;8.03;;;5.37;;
16037;SDS011;8123;50.906;6.172;2023-06-14T08:22:00;12.13;;;5.07;;
16037;SDS011;8123;50.906;6.172;2023-06-14T08:24:26;18.20;;;5.37;;
16037;SDS011;8123;50.906;6.172;2023-06-14T08:26:52;11.20;;;6.10;;
16037;SDS011;8123;50.906;6.172;2023-06-14T08:29:18;9.10;;;5.33;;
16037;SDS011;8123;50.906;6.172;2023-06-14T08:31:44;11.47;;;5.00;;
16037;SDS011;8123;50.906;6.172;2023-06-14T08:34:10;9.53;;;5.53;;
16037;SDS011;8123;50.906;6.172;2023-06-14T08:36:36;8.30;;;5.07;;
16037;SDS011;8123;50.906;6.172;2023-06-14T08:39:02;27.03;;;5.77;;
16037;SDS011;8123;50.906;6.172;2023-06-14T08:41:28;12.83;;;6.07;;
16037;SDS011;8123;50.906;6.172;2023-06-14T08:43:54;9.13;;;4.80;;
16037;SDS011;8123;50.906;6.172;2023-06-14T08:46:21;20.80;;;5.27;;
16037;SDS011;8123;50.906;6.172;2023-06-14T08:48:52;10.87;;;4.73;;
16037;SDS011;8123;50.906;6.172;2023-06-14T08:51:22;9.30;;;4.90;;
16037;SDS011;8123;50.906;6.172;2023-06-14T08:53:53;5.67;;;4.43;;
16037;SDS011;8123;50.906;6.172;2023-06-14T08:56:27;6.03;;;4.37;;
16037;SDS011;8123;50.906;6.172;2023-06-14T08:58:54;9.87;;;4.70;;
16037;SDS011;8123;50.906;6.172;2023-06-14T09:01:21;12.83;;;4.63;;
16037;SDS011;8123;50.906;6.172;2023-06-14T09:03:48;15.17;;;4.53;;
16037;SDS011;8123;50.906;6.172;2023-06-14T09:06:15;8.97;;;4.27;;
16037;SDS011;8123;50.906;6.172;2023-06-14T09:08:42;5.10;;;4.00;;
16037;SDS011;8123;50.906;6.172;2023-06-14T09:11:10;4.73;;;4.10;;
16037;SDS011;8123;50.906;6.172;2023-06-14T09:13:38;7.10;;;3.60;;
16037;SDS011;8123;50.906;6.172;2023-06-14T09:16:05;5.80;;;4.00;;
16037;SDS011;8123;50.906;6.172;2023-06-14T09:18:36;8.53;;;3.93;;
16037;SDS011;8123;50.906;6.172;2023-06-14T09:21:07;4.67;;;4.00;;
16037;SDS011;8123;50.906;6.172;2023-06-14T09:23:37;6.77;;;4.00;;
16037;SDS011;8123;50.906;6.172;2023-06-14T09:26:12;10.37;;;4.43;;
16037;SDS011;8123;50.906;6.172;2023-06-14T09:28:46;7.00;;;4.63;;
16037;SDS011;8123;50.906;6.172;2023-06-14T09:31:18;15.20;;;4.33;;
16037;SDS011;8123;50.906;6.172;2023-06-14T09:33:45;7.17;;;4.40;;
16037;SDS011;8123;50.906;6.172;2023-06-14T09:36:17;7.20;;;3.90;;
16037;SDS011;8123;50.906;6.172;2023-06-14T09:38:52;4.73;;;4.00;;
16037;SDS011;8123;50.906;6.172;2023-06-14T09:41:36;5.27;;;3.50;;
16037;SDS011;8123;50.906;6.172;2023-06-14T09:44:03;6.93;;;3.77;;
16037;SDS011;8123;50.906;6.172;2023-06-14T09:46:32;4.80;;;4.30;;
16037;SDS011;8123;50.906;6.172;2023-06-14T09:49:01;5.63;;;3.70;;
16037;SDS011;8123;50.906;6.172;2023-06-14T09:51:28;12.70;;;4.63;;
16037;SDS011;8123;50.906;6.172;2023-06-14T09:54:00;4.43;;;3.90;;
16037;SDS011;8123;50.906;6.172;2023-06-14T09:56:30;8.83;;;3.73;;
16037;SDS011;8123;50.906;6.172;2023-06-14T09:59:09;9.43;;;4.40;;
16037;SDS011;8123;50.906;6.172;2023-06-14T10:01:35;4.07;;;3.63;;
16037;SDS011;8123;50.906;6.172;2023-06-14T10:04:07;8.43;;;4.43;;
16037;SDS011;8123;50.906;6.172;2023-06-14T10:06:41;6.20;;;4.23;;
16037;SDS011;8123;50.906;6.172;2023-06-14T10:09:11;3.73;;;3.30;;
16037;SDS011;8123;50.906;6.172;2023-06-14T10:11:37;13.90;;;3.90;;
16037;SDS011;8123;50.906;6.172;2023-06-14T10:14:08;10.20;;;3.83;;
16037;SDS011;8123;50.906;6.172;2023-06-14T10:16:47;10.30;;;3.60;;
16037;SDS011;8123;50.906;6.172;2023-06-14T10:19:40;13.17;;;3.27;;
16037;SDS011;8123;50.906;6.172;2023-06-14T10:22:11;6.30;;;2.90;;
16037;SDS011;8123;50.906;6.172;2023-06-14T10:24:50;2.27;;;2.10;;
16037;SDS011;8123;50.906;6.172;2023-06-14T10:27:16;4.93;;;2.70;;
16037;SDS011;8123;50.906;6.172;2023-06-14T10:32:17;7.07;;;3.20;;
16037;SDS011;8123;50.906;6.172;2023-06-14T10:34:44;2.67;;;2.43;;
16037;SDS011;8123;50.906;6.172;2023-06-14T10:37:11;4.20;;;2.30;;
16037;SDS011;8123;50.906;6.172;2023-06-14T10:39:38;6.60;;;2.87;;
16037;SDS011;8123;50.906;6.172;2023-06-14T10:42:13;18.27;;;3.13;;
16037;SDS011;8123;50.906;6.172;2023-06-14T10:44:47;3.00;;;2.80;;
16037;SDS011;8123;50.906;6.172;2023-06-14T10:49:51;8.00;;;2.83;;
16037;SDS011;8123;50.906;6.172;2023-06-14T10:52:43;7.47;;;3.13;;
16037;SDS011;8123;50.906;6.172;2023-06-14T10:55:10;6.63;;;3.40;;
16037;SDS011;8123;50.906;6.172;2023-06-14T10:57:42;5.50;;;2.90;;
16037;SDS011;8123;50.906;6.172;2023-06-14T11:00:11;9.20;;;3.00;;
16037;SDS011;8123;50.906;6.172;2023-06-14T11:02:46;6.27;;;2.83;;
16037;SDS011;8123;50.906;6.172;2023-06-14T11:05:28;5.00;;;2.80;;
16037;SDS011;8123;50.906;6.172;2023-06-14T11:10:41;3.57;;;3.27;;
16037;SDS011;8123;50.906;6.172;2023-06-14T11:13:10;5.50;;;3.37;;
16037;SDS011;8123;50.906;6.172;2023-06-14T11:15:37;3.33;;;3.03;;
16037;SDS011;8123;50.906;6.172;2023-06-14T11:18:04;10.37;;;2.73;;
16037;SDS011;8123;50.906;6.172;2023-06-14T11:20:31;7.10;;;3.63;;
16037;SDS011;8123;50.906;6.172;2023-06-14T11:22:59;11.93;;;3.33;;
16037;SDS011;8123;50.906;6.172;2023-06-14T11:25:25;18.67;;;3.67;;
16037;SDS011;8123;50.906;6.172;2023-06-14T11:27:53;11.80;;;3.47;;
16037;SDS011;8123;50.906;6.172;2023-06-14T11:30:19;12.17;;;3.10;;
16037;SDS011;8123;50.906;6.172;2023-06-14T11:32:51;7.07;;;2.77;;
16037;SDS011;8123;50.906;6.172;2023-06-14T11:35:18;7.70;;;3.23;;
16037;SDS011;8123;50.906;6.172;2023-06-14T11:37:44;9.90;;;3.00;;
16037;SDS011;8123;50.906;6.172;2023-06-14T11:40:10;5.13;;;3.20;;
16037;SDS011;8123;50.906;6.172;2023-06-14T11:42:38;6.67;;;3.67;;
16037;SDS011;8123;50.906;6.172;2023-06-14T11:45:09;4.33;;;2.97;;
16037;SDS011;8123;50.906;6.172;2023-06-14T11:47:36;4.47;;;3.00;;
16037;SDS011;8123;50.906;6.172;2023-06-14T11:50:04;7.37;;;3.10;;
16037;SDS011;8123;50.906;6.172;2023-06-14T11:52:31;9.30;;;2.80;;
16037;SDS011;8123;50.906;6.172;2023-06-14T11:54:57;2.73;;;2.53;;
16037;SDS011;8123;50.906;6.172;2023-06-14T11:57:24;7.30;;;2.90;;
16037;SDS011;8123;50.906;6.172;2023-06-14T11:59:50;9.77;;;2.97;;
16037;SDS011;8123;50.906;6.172;2023-06-14T12:02:16;6.10;;;2.80;;
16037;SDS011;8123;50.906;6.172;2023-06-14T12:04:46;3.00;;;2.70;;
16037;SDS011;8123;50.906;6.172;2023-06-14T12:07:12;6.90;;;3.40;;
16037;SDS011;8123;50.906;6.172;2023-06-14T12:09:42;4.70;;;3.10;;
16037;SDS011;8123;50.906;6.172;2023-06-14T12:12:34;2.73;;;2.53;;
16037;SDS011;8123;50.906;6.172;2023-06-14T12:15:02;6.40;;;2.93;;
16037;SDS011;8123;50.906;6.172;2023-06-14T12:17:33;3.30;;;2.70;;
16037;SDS011;8123;50.906;6.172;2023-06-14T12:20:07;4.00;;;2.87;;
16037;SDS011;8123;50.906;6.172;2023-06-14T12:22:39;5.90;;;2.80;;
16037;SDS011;8123;50.906;6.172;2023-06-14T12:25:11;4.90;;;2.63;;
16037;SDS011;8123;50.906;6.172;2023-06-14T12:27:52;3.47;;;3.07;;
16037;SDS011;8123;50.906;6.172;2023-06-14T12:30:18;4.27;;;2.90;;
16037;SDS011;8123;50.906;6.172;2023-06-14T12:32:44;9.00;;;4.07;;
16037;SDS011;8123;50.906;6.172;2023-06-14T12:35:10;6.13;;;3.17;;
16037;SDS011;8123;50.906;6.172;2023-06-14T12:37:36;3.90;;;3.23;;
16037;SDS011;8123;50.906;6.172;2023-06-14T12:40:02;10.30;;;3.70;;
16037;SDS011;8123;50.906;6.172;2023-06-14T12:42:32;7.37;;;3.80;;
16037;SDS011;8123;50.906;6.172;2023-06-14T12:44:58;3.33;;;3.03;;
16037;SDS011;8123;50.906;6.172;2023-06-14T12:47:24;4.53;;;3.03;;
16037;SDS011;8123;50.906;6.172;2023-06-14T12:49:50;7.27;;;3.40;;
16037;SDS011;8123;50.906;6.172;2023-06-14T12:52:16;7.83;;;3.83;;
16037;SDS011;8123;50.906;6.172;2023-06-14T12:54:42;8.50;;;3.60;;
16037;SDS011;8123;50.906;6.172;2023-06-14T12:57:07;5.10;;;3.40;;
16037;SDS011;8123;50.906;6.172;2023-06-14T12:59:34;12.30;;;2.30;;
16037;SDS011;8123;50.906;6.172;2023-06-14T13:02:16;9.37;;;2.90;;
16037;SDS011;8123;50.906;6.172;2023-06-14T13:04:43;3.00;;;2.63;;
16037;SDS011;8123;50.906;6.172;2023-06-14T13:07:09;8.33;;;3.50;;
16037;SDS011;8123;50.906;6.172;2023-06-14T13:09:36;4.27;;;3.37;;
16037;SDS011;8123;50.906;6.172;2023-06-14T13:12:02;5.83;;;2.70;;
16037;SDS011;8123;50.906;6.172;2023-06-14T13:14:28;7.90;;;3.20;;
16037;SDS011;8123;50.906;6.172;2023-06-14T13:16:53;7.60;;;2.93;;
16037;SDS011;8123;50.906;6.172;2023-06-14T13:19:20;4.77;;;2.90;;
16037;SDS011;8123;50.906;6.172;2023-06-14T13:21:46;14.13;;;3.37;;
16037;SDS011;8123;50.906;6.172;2023-06-14T13:24:13;7.33;;;3.40;;
16037;SDS011;8123;50.906;6.172;2023-06-14T13:26:38;10.60;;;2.87;;
16037;SDS011;8123;50.906;6.172;2023-06-14T13:29:05;6.03;;;3.17;;
16037;SDS011;8123;50.906;6.172;2023-06-14T13:31:30;6.57;;;3.40;;
16037;SDS011;8123;50.906;6.172;2023-06-14T13:33:56;5.83;;;3.23;;
16037;SDS011;8123;50.906;6.172;2023-06-14T13:36:21;10.47;;;3.60;;
16037;SDS011;8123;50.906;6.172;2023-06-14T13:38:47;5.13;;;3.50;;
16037;SDS011;8123;50.906;6.172;2023-06-14T13:41:13;7.00;;;3.60;;
16037;SDS011;8123;50.906;6.172;2023-06-14T13:43:39;9.97;;;3.70;;
16037;SDS011;8123;50.906;6.172;2023-06-14T13:46:05;8.87;;;3.87;;
16037;SDS011;8123;50.906;6.172;2023-06-14T13:48:31;3.87;;;3.47;;
16037;SDS011;8123;50.906;6.172;2023-06-14T13:50:57;4.33;;;3.93;;
16037;SDS011;8123;50.906;6.172;2023-06-14T13:53:25;9.53;;;4.43;;
16037;SDS011;8123;50.906;6.172;2023-06-14T13:55:50;6.53;;;3.90;;
16037;SDS011;8123;50.906;6.172;2023-06-14T13:58:17;10.23;;;3.67;;
16037;SDS011;8123;50.906;6.172;2023-06-14T14:00:43;12.57;;;3.90;;
16037;SDS011;8123;50.906;6.172;2023-06-14T14:03:09;4.63;;;3.57;;
16037;SDS011;8123;50.906;6.172;2023-06-14T14:05:35;3.57;;;3.27;;
16037;SDS011;8123;50.906;6.172;2023-06-14T14:08:00;4.17;;;3.43;;
16037;SDS011;8123;50.906;6.172;2023-06-14T14:10:27;10.73;;;3.70;;
16037;SDS011;8123;50.906;6.172;2023-06-14T14:12:52;12.40;;;3.50;;
16037;SDS011;8123;50.906;6.172;2023-06-14T14:15:19;4.90;;;3.20;;
16037;SDS011;8123;50.906;6.172;2023-06-14T14:17:45;7.53;;;3.30;;
16037;SDS011;8123;50.906;6.172;2023-06-14T14:20:12;4.23;;;3.30;;
16037;SDS011;8123;50.906;6.172;2023-06-14T14:22:40;13.73;;;3.90;;
16037;SDS011;8123;50.906;6.172;2023-06-14T14:25:06;16.20;;;3.80;;
16037;SDS011;8123;50.906;6.172;2023-06-14T14:27:32;7.13;;;3.70;;
16037;SDS011;8123;50.906;6.172;2023-06-14T14:30:00;4.90;;;3.47;;
16037;SDS011;8123;50.906;6.172;2023-06-14T14:32:27;13.50;;;3.53;;
16037;SDS011;8123;50.906;6.172;2023-06-14T14:34:53;7.73;;;3.00;;
16037;SDS011;8123;50.906;6.172;2023-06-14T14:37:19;6.80;;;3.87;;
16037;SDS011;8123;50.906;6.172;2023-06-14T14:39:45;2.87;;;2.67;;
16037;SDS011;8123;50.906;6.172;2023-06-14T14:42:21;4.47;;;3.57;;
16037;SDS011;8123;50.906;6.172;2023-06-14T14:44:48;8.03;;;3.20;;
16037;SDS011;8123;50.906;6.172;2023-06-14T14:47:17;3.17;;;2.97;;
16037;SDS011;8123;50.906;6.172;2023-06-14T14:49:43;5.57;;;3.60;;
16037;SDS011;8123;50.906;6.172;2023-06-14T14:52:08;8.70;;;2.90;;
16037;SDS011;8123;50.906;6.172;2023-06-14T14:54:35;8.60;;;3.17;;
16037;SDS011;8123;50.906;6.172;2023-06-14T14:57:01;7.33;;;3.20;;
16037;SDS011;8123;50.906;6.172;2023-06-14T14:59:27;10.83;;;3.57;;
16037;SDS011;8123;50.906;6.172;2023-06-14T15:01:52;12.30;;;3.47;;
16037;SDS011;8123;50.906;6.172;2023-06-14T15:04:18;4.57;;;2.97;;